sensor_id;sensor_type;location;lat;lon;timestamp;P1;durP1;ratioP1;P2;durP2;ratioP2
3095;SDS011;1558;42.700;23.360;2024-03-02T00:00:50;14.30;;;13.00;;
3095;SDS011;1558;42.700;23.360;2024-03-02T00:03:19;11.73;;;10.87;;
3095;SDS011;1558;42.700;23.360;2024-03-02T00:05:50;10.97;;;10.33;;
3095;SDS011;1558;42.700;23.360;2024-03-02T00:08:21;5.43;;;2.90;;
3095;SDS011;1558;42.700;23.360;2024-03-02T00:10:51;5.37;;;3.20;;
3095;SDS011;1558;42.700;23.360;2024-03-02T00:13:26;2.73;;;2.40;;
3095;SDS011;1558;42.700;23.360;2024-03-02T00:15:55;4.50;;;3.50;;
3095;SDS011;1558;42.700;23.360;2024-03-02T00:18:25;3.63;;;2.37;;
3095;SDS011;1558;42.700;23.360;2024-03-02T00:20:54;5.47;;;4.30;;
3095;SDS011;1558;42.700;23.360;2024-03-02T00:23:24;3.10;;;2.80;;
3095;SDS011;1558;42.700;23.360;2024-03-02T00:25:55;3.90;;;3.00;;
3095;SDS011;1558;42.700;23.360;2024-03-02T00:28:23;4.30;;;2.70;;
3095;SDS011;1558;42.700;23.360;2024-03-02T00:30:56;5.30;;;2.93;;
3095;SDS011;1558;42.700;23.360;2024-03-02T00:33:26;4.23;;;3.47;;
3095;SDS011;1558;42.700;23.360;2024-03-02T00:35:56;3.83;;;2.37;;
3095;SDS011;1558;42.700;23.360;2024-03-02T00:38:26;3.90;;;3.07;;
3095;SDS011;1558;42.700;23.360;2024-03-02T00:40:55;5.63;;;3.10;;
3095;SDS011;1558;42.700;23.360;2024-03-02T00:43:47;3.20;;;2.80;;
3095;SDS011;1558;42.700;23.360;2024-03-02T00:46:18;3.43;;;2.20;;
3095;SDS011;1558;42.700;23.360;2024-03-02T00:48:56;6.73;;;3.27;;
3095;SDS011;1558;42.700;23.360;2024-03-02T00:51:26;2.67;;;2.17;;
3095;SDS011;1558;42.700;23.360;2024-03-02T00:53:57;8.63;;;4.03;;
3095;SDS011;1558;42.700;23.360;2024-03-02T00:56:30;4.37;;;2.77;;
3095;SDS011;1558;42.700;23.360;2024-03-02T00:59:01;3.70;;;2.40;;
3095;SDS011;1558;42.700;23.360;2024-03-02T01:01:29;4.13;;;2.87;;
3095;SDS011;1558;42.700;23.360;2024-03-02T01:03:58;3.70;;;2.73;;
3095;SDS011;1558;42.700;23.360;2024-03-02T01:06:26;2.87;;;2.60;;
3095;SDS011;1558;42.700;23.360;2024-03-02T01:08:54;3.77;;;2.97;;
3095;SDS011;1558;42.700;23.360;2024-03-02T01:11:22;4.17;;;2.70;;
3095;SDS011;1558;42.700;23.360;2024-03-02T01:13:51;5.13;;;3.23;;
3095;SDS011;1558;42.700;23.360;2024-03-02T01:16:20;3.43;;;2.70;;
3095;SDS011;1558;42.700;23.360;2024-03-02T01:18:49;2.57;;;2.37;;
3095;SDS011;1558;42.700;23.360;2024-03-02T01:21:17;3.40;;;2.83;;
3095;SDS011;1558;42.700;23.360;2024-03-02T01:23:46;3.03;;;2.17;;
3095;SDS011;1558;42.700;23.360;2024-03-02T01:26:14;3.80;;;2.67;;
3095;SDS011;1558;42.700;23.360;2024-03-02T01:28:42;3.23;;;2.20;;
3095;SDS011;1558;42.700;23.360;2024-03-02T01:31:10;4.43;;;3.47;;
3095;SDS011;1558;42.700;23.360;2024-03-02T01:33:40;4.17;;;3.77;;
3095;SDS011;1558;42.700;23.360;2024-03-02T01:36:09;3.43;;;3.07;;
3095;SDS011;1558;42.700;23.360;2024-03-02T01:38:37;5.50;;;3.20;;
3095;SDS011;1558;42.700;23.360;2024-03-02T01:41:05;3.33;;;2.73;;
3095;SDS011;1558;42.700;23.360;2024-03-02T01:43:33;3.43;;;2.63;;
3095;SDS011;1558;42.700;23.360;2024-03-02T01:46:05;5.17;;;3.73;;
3095;SDS011;1558;42.700;23.360;2024-03-02T01:48:33;10.23;;;4.40;;
3095;SDS011;1558;42.700;23.360;2024-03-02T01:51:03;5.47;;;3.57;;
3095;SDS011;1558;42.700;23.360;2024-03-02T01:53:33;2.77;;;2.47;;
3095;SDS011;1558;42.700;23.360;2024-03-02T01:56:02;5.73;;;3.40;;
3095;SDS011;1558;42.700;23.360;2024-03-02T01:58:31;5.33;;;3.47;;
3095;SDS011;1558;42.700;23.360;2024-03-02T02:00:59;4.03;;;3.03;;
3095;SDS011;1558;42.700;23.360;2024-03-02T02:03:28;6.67;;;4.83;;
3095;SDS011;1558;42.700;23.360;2024-03-02T02:05:56;33.93;;;26.17;;
3095;SDS011;1558;42.700;23.360;2024-03-02T02:08:25;34.07;;;26.23;;
3095;SDS011;1558;42.700;23.360;2024-03-02T02:10:54;38.67;;;27.33;;
3095;SDS011;1558;42.700;23.360;2024-03-02T02:13:22;38.73;;;27.47;;
3095;SDS011;1558;42.700;23.360;2024-03-02T02:15:50;37.57;;;26.33;;
3095;SDS011;1558;42.700;23.360;2024-03-02T02:18:19;37.80;;;26.70;;
3095;SDS011;1558;42.700;23.360;2024-03-02T02:20:48;35.23;;;25.73;;
3095;SDS011;1558;42.700;23.360;2024-03-02T02:23:17;35.27;;;26.13;;
3095;SDS011;1558;42.700;23.360;2024-03-02T02:25:45;34.03;;;26.73;;
3095;SDS011;1558;42.700;23.360;2024-03-02T02:28:13;34.20;;;26.07;;
3095;SDS011;1558;42.700;23.360;2024-03-02T02:30:42;36.40;;;25.60;;
3095;SDS011;1558;42.700;23.360;2024-03-02T02:33:10;35.17;;;26.93;;
3095;SDS011;1558;42.700;23.360;2024-03-02T02:35:38;35.80;;;25.70;;
3095;SDS011;1558;42.700;23.360;2024-03-02T02:38:06;34.37;;;26.83;;
3095;SDS011;1558;42.700;23.360;2024-03-02T02:40:36;37.70;;;28.30;;
3095;SDS011;1558;42.700;23.360;2024-03-02T02:43:04;35.67;;;27.67;;
3095;SDS011;1558;42.700;23.360;2024-03-02T02:45:33;37.30;;;27.33;;
3095;SDS011;1558;42.700;23.360;2024-03-02T02:48:01;37.83;;;27.87;;
3095;SDS011;1558;42.700;23.360;2024-03-02T02:50:30;36.17;;;25.43;;
3095;SDS011;1558;42.700;23.360;2024-03-02T02:52:58;34.53;;;25.53;;
3095;SDS011;1558;42.700;23.360;2024-03-02T02:55:27;36.30;;;26.13;;
3095;SDS011;1558;42.700;23.360;2024-03-02T02:57:56;33.97;;;25.00;;
3095;SDS011;1558;42.700;23.360;2024-03-02T03:00:25;32.17;;;25.33;;
3095;SDS011;1558;42.700;23.360;2024-03-02T03:02:53;35.13;;;24.97;;
3095;SDS011;1558;42.700;23.360;2024-03-02T03:05:21;35.13;;;25.10;;
3095;SDS011;1558;42.700;23.360;2024-03-02T03:07:49;34.77;;;25.63;;
3095;SDS011;1558;42.700;23.360;2024-03-02T03:10:17;34.33;;;27.53;;
3095;SDS011;1558;42.700;23.360;2024-03-02T03:12:48;35.97;;;29.67;;
3095;SDS011;1558;42.700;23.360;2024-03-02T03:15:18;32.73;;;27.13;;
3095;SDS011;1558;42.700;23.360;2024-03-02T03:17:46;34.30;;;27.63;;
3095;SDS011;1558;42.700;23.360;2024-03-02T03:20:15;35.87;;;28.50;;
3095;SDS011;1558;42.700;23.360;2024-03-02T03:22:43;35.83;;;29.23;;
3095;SDS011;1558;42.700;23.360;2024-03-02T03:25:11;37.73;;;29.53;;
3095;SDS011;1558;42.700;23.360;2024-03-02T03:27:39;34.47;;;29.47;;
3095;SDS011;1558;42.700;23.360;2024-03-02T03:30:08;39.63;;;30.43;;
3095;SDS011;1558;42.700;23.360;2024-03-02T03:32:39;34.93;;;29.70;;
3095;SDS011;1558;42.700;23.360;2024-03-02T03:35:07;43.07;;;29.80;;
3095;SDS011;1558;42.700;23.360;2024-03-02T03:37:36;39.43;;;30.63;;
3095;SDS011;1558;42.700;23.360;2024-03-02T03:40:05;36.90;;;29.27;;
3095;SDS011;1558;42.700;23.360;2024-03-02T03:42:37;37.33;;;29.90;;
3095;SDS011;1558;42.700;23.360;2024-03-02T03:45:05;36.43;;;29.77;;
3095;SDS011;1558;42.700;23.360;2024-03-02T03:47:34;36.73;;;30.27;;
3095;SDS011;1558;42.700;23.360;2024-03-02T03:50:05;35.43;;;26.73;;
3095;SDS011;1558;42.700;23.360;2024-03-02T03:52:34;34.93;;;26.43;;
3095;SDS011;1558;42.700;23.360;2024-03-02T03:55:02;38.17;;;26.60;;
3095;SDS011;1558;42.700;23.360;2024-03-02T03:57:32;37.13;;;26.57;;
3095;SDS011;1558;42.700;23.360;2024-03-02T04:00:00;38.93;;;27.37;;
3095;SDS011;1558;42.700;23.360;2024-03-02T04:02:28;38.00;;;27.33;;
3095;SDS011;1558;42.700;23.360;2024-03-02T04:04:57;36.40;;;26.17;;
3095;SDS011;1558;42.700;23.360;2024-03-02T04:07:26;35.73;;;25.93;;
3095;SDS011;1558;42.700;23.360;2024-03-02T04:09:54;35.53;;;26.90;;
3095;SDS011;1558;42.700;23.360;2024-03-02T04:12:22;35.80;;;25.90;;
3095;SDS011;1558;42.700;23.360;2024-03-02T04:14:51;36.93;;;26.27;;
3095;SDS011;1558;42.700;23.360;2024-03-02T04:17:19;37.47;;;27.43;;
3095;SDS011;1558;42.700;23.360;2024-03-02T04:19:47;41.67;;;27.53;;
3095;SDS011;1558;42.700;23.360;2024-03-02T04:22:15;38.90;;;26.40;;
3095;SDS011;1558;42.700;23.360;2024-03-02T04:24:52;40.43;;;27.50;;
3095;SDS011;1558;42.700;23.360;2024-03-02T04:27:20;38.33;;;26.50;;
3095;SDS011;1558;42.700;23.360;2024-03-02T04:29:49;40.33;;;27.07;;
3095;SDS011;1558;42.700;23.360;2024-03-02T04:32:17;38.40;;;27.67;;
3095;SDS011;1558;42.700;23.360;2024-03-02T04:34:46;38.73;;;27.47;;
3095;SDS011;1558;42.700;23.360;2024-03-02T04:37:14;41.27;;;27.23;;
3095;SDS011;1558;42.700;23.360;2024-03-02T04:39:42;38.60;;;27.60;;
3095;SDS011;1558;42.700;23.360;2024-03-02T04:42:12;36.17;;;26.87;;
3095;SDS011;1558;42.700;23.360;2024-03-02T04:44:40;40.60;;;28.67;;
3095;SDS011;1558;42.700;23.360;2024-03-02T04:47:08;37.00;;;28.20;;
3095;SDS011;1558;42.700;23.360;2024-03-02T04:49:36;40.00;;;27.43;;
3095;SDS011;1558;42.700;23.360;2024-03-02T04:52:04;37.23;;;26.30;;
3095;SDS011;1558;42.700;23.360;2024-03-02T04:54:33;40.57;;;27.07;;
3095;SDS011;1558;42.700;23.360;2024-03-02T04:57:23;34.27;;;24.90;;
3095;SDS011;1558;42.700;23.360;2024-03-02T04:59:51;38.23;;;25.47;;
3095;SDS011;1558;42.700;23.360;2024-03-02T05:02:19;35.37;;;25.57;;
3095;SDS011;1558;42.700;23.360;2024-03-02T05:04:47;38.33;;;26.33;;
3095;SDS011;1558;42.700;23.360;2024-03-02T05:07:16;39.93;;;26.43;;
3095;SDS011;1558;42.700;23.360;2024-03-02T05:09:44;36.10;;;23.33;;
3095;SDS011;1558;42.700;23.360;2024-03-02T05:12:12;2.97;;;2.30;;
3095;SDS011;1558;42.700;23.360;2024-03-02T05:15:03;5.87;;;2.90;;
3095;SDS011;1558;42.700;23.360;2024-03-02T05:17:32;6.63;;;4.23;;
3095;SDS011;1558;42.700;23.360;2024-03-02T05:20:01;4.53;;;2.77;;
3095;SDS011;1558;42.700;23.360;2024-03-02T05:22:30;7.67;;;4.30;;
3095;SDS011;1558;42.700;23.360;2024-03-02T05:25:00;4.77;;;2.93;;
3095;SDS011;1558;42.700;23.360;2024-03-02T05:27:28;3.77;;;3.20;;
3095;SDS011;1558;42.700;23.360;2024-03-02T05:29:56;3.77;;;2.73;;
3095;SDS011;1558;42.700;23.360;2024-03-02T05:32:27;2.37;;;2.17;;
3095;SDS011;1558;42.700;23.360;2024-03-02T05:34:58;4.47;;;3.13;;
3095;SDS011;1558;42.700;23.360;2024-03-02T05:37:27;3.90;;;2.90;;
3095;SDS011;1558;42.700;23.360;2024-03-02T05:39:55;3.90;;;2.43;;
3095;SDS011;1558;42.700;23.360;2024-03-02T05:42:23;4.70;;;3.63;;
3095;SDS011;1558;42.700;23.360;2024-03-02T05:44:51;7.60;;;2.87;;
3095;SDS011;1558;42.700;23.360;2024-03-02T05:47:20;4.00;;;3.13;;
3095;SDS011;1558;42.700;23.360;2024-03-02T05:49:49;4.83;;;2.80;;
3095;SDS011;1558;42.700;23.360;2024-03-02T05:52:17;3.57;;;2.30;;
3095;SDS011;1558;42.700;23.360;2024-03-02T05:54:47;5.53;;;2.63;;
3095;SDS011;1558;42.700;23.360;2024-03-02T05:57:16;3.37;;;3.13;;
3095;SDS011;1558;42.700;23.360;2024-03-02T05:59:58;4.63;;;4.03;;
3095;SDS011;1558;42.700;23.360;2024-03-02T06:02:27;4.73;;;3.70;;
3095;SDS011;1558;42.700;23.360;2024-03-02T06:04:56;7.63;;;4.43;;
3095;SDS011;1558;42.700;23.360;2024-03-02T06:07:25;5.83;;;4.17;;
3095;SDS011;1558;42.700;23.360;2024-03-02T06:09:53;5.87;;;3.90;;
3095;SDS011;1558;42.700;23.360;2024-03-02T06:12:21;7.80;;;4.10;;
3095;SDS011;1558;42.700;23.360;2024-03-02T06:14:50;6.97;;;3.40;;
3095;SDS011;1558;42.700;23.360;2024-03-02T06:17:18;4.30;;;3.53;;
3095;SDS011;1558;42.700;23.360;2024-03-02T06:19:46;7.23;;;4.17;;
3095;SDS011;1558;42.700;23.360;2024-03-02T06:22:16;4.00;;;3.23;;
3095;SDS011;1558;42.700;23.360;2024-03-02T06:24:45;4.20;;;3.83;;
3095;SDS011;1558;42.700;23.360;2024-03-02T06:27:13;6.27;;;4.23;;
3095;SDS011;1558;42.700;23.360;2024-03-02T06:29:42;6.03;;;3.30;;
3095;SDS011;1558;42.700;23.360;2024-03-02T06:32:10;5.73;;;3.27;;
3095;SDS011;1558;42.700;23.360;2024-03-02T06:34:38;8.37;;;4.60;;
3095;SDS011;1558;42.700;23.360;2024-03-02T06:37:06;4.30;;;3.90;;
3095;SDS011;1558;42.700;23.360;2024-03-02T06:39:36;4.73;;;4.33;;
3095;SDS011;1558;42.700;23.360;2024-03-02T06:42:04;5.70;;;4.30;;
3095;SDS011;1558;42.700;23.360;2024-03-02T06:44:32;4.47;;;4.07;;
3095;SDS011;1558;42.700;23.360;2024-03-02T06:47:01;5.00;;;4.27;;
3095;SDS011;1558;42.700;23.360;2024-03-02T06:49:29;8.83;;;5.43;;
3095;SDS011;1558;42.700;23.360;2024-03-02T06:51:57;7.13;;;4.47;;
3095;SDS011;1558;42.700;23.360;2024-03-02T06:54:26;5.03;;;3.87;;
3095;SDS011;1558;42.700;23.360;2024-03-02T06:56:56;6.47;;;5.30;;
3095;SDS011;1558;42.700;23.360;2024-03-02T06:59:24;4.73;;;3.80;;
3095;SDS011;1558;42.700;23.360;2024-03-02T07:01:52;5.97;;;5.17;;
3095;SDS011;1558;42.700;23.360;2024-03-02T07:04:24;10.60;;;5.97;;
3095;SDS011;1558;42.700;23.360;2024-03-02T07:07:13;4.97;;;4.23;;
3095;SDS011;1558;42.700;23.360;2024-03-02T07:09:46;4.33;;;3.93;;
3095;SDS011;1558;42.700;23.360;2024-03-02T07:12:24;4.83;;;4.40;;
3095;SDS011;1558;42.700;23.360;2024-03-02T07:14:54;3.57;;;3.30;;
3095;SDS011;1558;42.700;23.360;2024-03-02T07:17:39;5.40;;;4.80;;
3095;SDS011;1558;42.700;23.360;2024-03-02T07:20:07;5.57;;;3.67;;
3095;SDS011;1558;42.700;23.360;2024-03-02T07:22:38;4.63;;;3.90;;
3095;SDS011;1558;42.700;23.360;2024-03-02T07:25:10;6.43;;;5.13;;
3095;SDS011;1558;42.700;23.360;2024-03-02T07:27:43;5.13;;;4.17;;
3095;SDS011;1558;42.700;23.360;2024-03-02T07:30:13;8.00;;;5.67;;
3095;SDS011;1558;42.700;23.360;2024-03-02T07:32:43;7.87;;;4.50;;
3095;SDS011;1558;42.700;23.360;2024-03-02T07:35:13;5.23;;;4.17;;
3095;SDS011;1558;42.700;23.360;2024-03-02T07:37:41;6.10;;;3.87;;
3095;SDS011;1558;42.700;23.360;2024-03-02T07:40:10;7.57;;;4.67;;
3095;SDS011;1558;42.700;23.360;2024-03-02T07:42:39;4.87;;;4.47;;
3095;SDS011;1558;42.700;23.360;2024-03-02T07:45:11;5.13;;;4.63;;
3095;SDS011;1558;42.700;23.360;2024-03-02T07:47:39;5.60;;;4.87;;
3095;SDS011;1558;42.700;23.360;2024-03-02T07:50:09;4.87;;;4.47;;
3095;SDS011;1558;42.700;23.360;2024-03-02T07:52:37;7.60;;;5.47;;
3095;SDS011;1558;42.700;23.360;2024-03-02T07:55:06;7.60;;;4.63;;
3095;SDS011;1558;42.700;23.360;2024-03-02T07:57:35;7.00;;;4.07;;
3095;SDS011;1558;42.700;23.360;2024-03-02T08:00:03;8.07;;;4.73;;
3095;SDS011;1558;42.700;23.360;2024-03-02T08:02:34;7.03;;;4.60;;
3095;SDS011;1558;42.700;23.360;2024-03-02T08:05:02;6.90;;;5.40;;
3095;SDS011;1558;42.700;23.360;2024-03-02T08:07:30;5.03;;;4.53;;
3095;SDS011;1558;42.700;23.360;2024-03-02T08:09:59;5.67;;;5.03;;
3095;SDS011;1558;42.700;23.360;2024-03-02T08:15:14;6.73;;;5.13;;
3095;SDS011;1558;42.700;23.360;2024-03-02T08:17:44;6.07;;;5.53;;
3095;SDS011;1558;42.700;23.360;2024-03-02T08:20:16;5.83;;;5.10;;
3095;SDS011;1558;42.700;23.360;2024-03-02T08:22:45;10.90;;;6.70;;
3095;SDS011;1558;42.700;23.360;2024-03-02T08:25:13;8.40;;;5.97;;
3095;SDS011;1558;42.700;23.360;2024-03-02T08:27:44;5.37;;;5.00;;
3095;SDS011;1558;42.700;23.360;2024-03-02T08:30:12;4.57;;;4.03;;
3095;SDS011;1558;42.700;23.360;2024-03-02T08:32:41;5.67;;;4.13;;
3095;SDS011;1558;42.700;23.360;2024-03-02T08:35:11;5.03;;;2.57;;
3095;SDS011;1558;42.700;23.360;2024-03-02T08:37:39;6.83;;;3.07;;
3095;SDS011;1558;42.700;23.360;2024-03-02T08:40:09;5.67;;;3.00;;
3095;SDS011;1558;42.700;23.360;2024-03-02T08:42:43;4.30;;;3.00;;
3095;SDS011;1558;42.700;23.360;2024-03-02T08:45:12;8.20;;;4.17;;
3095;SDS011;1558;42.700;23.360;2024-03-02T08:47:40;8.87;;;3.97;;
3095;SDS011;1558;42.700;23.360;2024-03-02T08:50:11;5.87;;;3.53;;
3095;SDS011;1558;42.700;23.360;2024-03-02T08:52:40;4.47;;;3.47;;
3095;SDS011;1558;42.700;23.360;2024-03-02T08:55:11;4.80;;;3.23;;
3095;SDS011;1558;42.700;23.360;2024-03-02T08:57:40;6.27;;;4.33;;
3095;SDS011;1558;42.700;23.360;2024-03-02T09:00:09;4.03;;;3.67;;
3095;SDS011;1558;42.700;23.360;2024-03-02T09:02:38;5.77;;;3.27;;
3095;SDS011;1558;42.700;23.360;2024-03-02T09:05:07;8.97;;;3.77;;
3095;SDS011;1558;42.700;23.360;2024-03-02T09:07:37;10.50;;;2.97;;
3095;SDS011;1558;42.700;23.360;2024-03-02T09:10:05;7.37;;;4.70;;
3095;SDS011;1558;42.700;23.360;2024-03-02T09:12:35;3.47;;;3.13;;
3095;SDS011;1558;42.700;23.360;2024-03-02T09:15:04;4.10;;;2.70;;
3095;SDS011;1558;42.700;23.360;2024-03-02T09:17:33;4.17;;;3.13;;
3095;SDS011;1558;42.700;23.360;2024-03-02T09:20:01;10.33;;;4.43;;
3095;SDS011;1558;42.700;23.360;2024-03-02T09:22:30;3.00;;;2.30;;
3095;SDS011;1558;42.700;23.360;2024-03-02T09:25:00;3.37;;;2.23;;
3095;SDS011;1558;42.700;23.360;2024-03-02T09:27:28;5.53;;;2.70;;
3095;SDS011;1558;42.700;23.360;2024-03-02T09:29:56;4.07;;;3.47;;
3095;SDS011;1558;42.700;23.360;2024-03-02T09:32:25;7.40;;;2.87;;
3095;SDS011;1558;42.700;23.360;2024-03-02T09:34:53;9.73;;;3.70;;
3095;SDS011;1558;42.700;23.360;2024-03-02T09:37:22;4.80;;;4.40;;
3095;SDS011;1558;42.700;23.360;2024-03-02T09:39:50;4.20;;;2.93;;
3095;SDS011;1558;42.700;23.360;2024-03-02T09:42:21;3.73;;;2.80;;
3095;SDS011;1558;42.700;23.360;2024-03-02T09:44:50;5.50;;;3.37;;
3095;SDS011;1558;42.700;23.360;2024-03-02T09:47:19;5.40;;;3.60;;
3095;SDS011;1558;42.700;23.360;2024-03-02T09:49:47;5.60;;;3.37;;
3095;SDS011;1558;42.700;23.360;2024-03-02T09:52:15;6.40;;;3.60;;
3095;SDS011;1558;42.700;23.360;2024-03-02T09:54:44;7.80;;;4.00;;
3095;SDS011;1558;42.700;23.360;2024-03-02T09:57:15;6.93;;;3.77;;
3095;SDS011;1558;42.700;23.360;2024-03-02T09:59:44;4.10;;;3.13;;
3095;SDS011;1558;42.700;23.360;2024-03-02T10:02:13;5.10;;;3.47;;
3095;SDS011;1558;42.700;23.360;2024-03-02T10:04:41;7.47;;;3.27;;
3095;SDS011;1558;42.700;23.360;2024-03-02T10:07:12;7.20;;;2.97;;
3095;SDS011;1558;42.700;23.360;2024-03-02T10:09:41;4.40;;;3.27;;
3095;SDS011;1558;42.700;23.360;2024-03-02T10:12:11;5.83;;;3.10;;
3095;SDS011;1558;42.700;23.360;2024-03-02T10:14:40;3.33;;;3.00;;
3095;SDS011;1558;42.700;23.360;2024-03-02T10:17:10;3.83;;;2.27;;
3095;SDS011;1558;42.700;23.360;2024-03-02T10:19:39;2.67;;;2.40;;
3095;SDS011;1558;42.700;23.360;2024-03-02T10:22:08;6.83;;;3.17;;
3095;SDS011;1558;42.700;23.360;2024-03-02T10:24:38;2.87;;;2.53;;
3095;SDS011;1558;42.700;23.360;2024-03-02T10:27:08;5.00;;;2.73;;
3095;SDS011;1558;42.700;23.360;2024-03-02T10:29:38;4.87;;;2.23;;
3095;SDS011;1558;42.700;23.360;2024-03-02T10:32:12;5.40;;;3.33;;
3095;SDS011;1558;42.700;23.360;2024-03-02T10:34:40;6.47;;;2.67;;
3095;SDS011;1558;42.700;23.360;2024-03-02T10:37:10;6.40;;;3.50;;
3095;SDS011;1558;42.700;23.360;2024-03-02T10:39:39;5.03;;;3.40;;
3095;SDS011;1558;42.700;23.360;2024-03-02T10:42:08;4.03;;;3.17;;
3095;SDS011;1558;42.700;23.360;2024-03-02T10:44:37;4.47;;;2.20;;
3095;SDS011;1558;42.700;23.360;2024-03-02T10:47:06;3.93;;;3.00;;
3095;SDS011;1558;42.700;23.360;2024-03-02T10:49:37;4.63;;;3.17;;
3095;SDS011;1558;42.700;23.360;2024-03-02T10:52:09;5.57;;;2.70;;
3095;SDS011;1558;42.700;23.360;2024-03-02T10:54:38;5.40;;;2.57;;
3095;SDS011;1558;42.700;23.360;2024-03-02T10:57:07;3.37;;;2.93;;
3095;SDS011;1558;42.700;23.360;2024-03-02T10:59:40;2.80;;;2.03;;
3095;SDS011;1558;42.700;23.360;2024-03-02T11:02:16;5.13;;;3.87;;
3095;SDS011;1558;42.700;23.360;2024-03-02T11:04:48;4.63;;;2.40;;
3095;SDS011;1558;42.700;23.360;2024-03-02T11:07:17;5.10;;;3.10;;
3095;SDS011;1558;42.700;23.360;2024-03-02T11:09:49;3.97;;;2.97;;
3095;SDS011;1558;42.700;23.360;2024-03-02T11:12:23;3.83;;;2.13;;
3095;SDS011;1558;42.700;23.360;2024-03-02T11:14:56;6.03;;;2.93;;
3095;SDS011;1558;42.700;23.360;2024-03-02T11:17:25;5.03;;;3.40;;
3095;SDS011;1558;42.700;23.360;2024-03-02T11:19:55;3.63;;;2.47;;
3095;SDS011;1558;42.700;23.360;2024-03-02T11:22:24;2.43;;;2.20;;
3095;SDS011;1558;42.700;23.360;2024-03-02T11:24:53;2.90;;;2.60;;
3095;SDS011;1558;42.700;23.360;2024-03-02T11:33:24;6.27;;;3.30;;
3095;SDS011;1558;42.700;23.360;2024-03-02T11:36:00;3.77;;;2.30;;
3095;SDS011;1558;42.700;23.360;2024-03-02T11:38:32;5.57;;;2.90;;
3095;SDS011;1558;42.700;23.360;2024-03-02T11:41:01;8.77;;;3.27;;
3095;SDS011;1558;42.700;23.360;2024-03-02T11:43:30;3.47;;;2.47;;
3095;SDS011;1558;42.700;23.360;2024-03-02T11:46:00;3.20;;;2.90;;
3095;SDS011;1558;42.700;23.360;2024-03-02T11:48:31;5.23;;;2.40;;
3095;SDS011;1558;42.700;23.360;2024-03-02T11:51:01;3.83;;;2.50;;
3095;SDS011;1558;42.700;23.360;2024-03-02T11:53:29;5.37;;;2.27;;
3095;SDS011;1558;42.700;23.360;2024-03-02T11:56:01;4.17;;;2.37;;
3095;SDS011;1558;42.700;23.360;2024-03-02T11:58:32;3.77;;;2.93;;
3095;SDS011;1558;42.700;23.360;2024-03-02T12:01:04;9.70;;;2.73;;
3095;SDS011;1558;42.700;23.360;2024-03-02T12:03:32;4.97;;;2.73;;
3095;SDS011;1558;42.700;23.360;2024-03-02T12:06:03;5.27;;;1.83;;
3095;SDS011;1558;42.700;23.360;2024-03-02T12:08:33;2.40;;;1.57;;
3095;SDS011;1558;42.700;23.360;2024-03-02T12:11:02;1.83;;;1.70;;
3095;SDS011;1558;42.700;23.360;2024-03-02T12:13:33;3.90;;;1.97;;
3095;SDS011;1558;42.700;23.360;2024-03-02T12:16:01;3.67;;;2.03;;
3095;SDS011;1558;42.700;23.360;2024-03-02T12:18:30;3.80;;;2.30;;
3095;SDS011;1558;42.700;23.360;2024-03-02T12:20:58;2.03;;;1.80;;
3095;SDS011;1558;42.700;23.360;2024-03-02T12:23:27;2.80;;;1.83;;
3095;SDS011;1558;42.700;23.360;2024-03-02T12:25:56;6.00;;;3.23;;
3095;SDS011;1558;42.700;23.360;2024-03-02T12:28:24;3.07;;;2.53;;
3095;SDS011;1558;42.700;23.360;2024-03-02T12:30:52;2.33;;;1.73;;
3095;SDS011;1558;42.700;23.360;2024-03-02T12:33:21;3.53;;;2.37;;
3095;SDS011;1558;42.700;23.360;2024-03-02T12:35:49;3.00;;;2.03;;
3095;SDS011;1558;42.700;23.360;2024-03-02T12:38:18;3.03;;;2.40;;
3095;SDS011;1558;42.700;23.360;2024-03-02T12:40:49;3.10;;;1.97;;
3095;SDS011;1558;42.700;23.360;2024-03-02T12:43:17;2.20;;;1.97;;
3095;SDS011;1558;42.700;23.360;2024-03-02T12:45:45;4.77;;;2.10;;
3095;SDS011;1558;42.700;23.360;2024-03-02T12:48:14;3.90;;;2.77;;
3095;SDS011;1558;42.700;23.360;2024-03-02T12:50:42;2.97;;;2.33;;
3095;SDS011;1558;42.700;23.360;2024-03-02T12:53:14;4.93;;;3.03;;
3095;SDS011;1558;42.700;23.360;2024-03-02T12:55:44;6.23;;;2.50;;
3095;SDS011;1558;42.700;23.360;2024-03-02T12:58:20;4.10;;;1.90;;
3095;SDS011;1558;42.700;23.360;2024-03-02T13:01:05;4.37;;;2.33;;
3095;SDS011;1558;42.700;23.360;2024-03-02T13:03:34;4.30;;;2.27;;
3095;SDS011;1558;42.700;23.360;2024-03-02T13:06:04;3.30;;;1.97;;
3095;SDS011;1558;42.700;23.360;2024-03-02T13:08:33;6.23;;;2.93;;
3095;SDS011;1558;42.700;23.360;2024-03-02T13:11:01;2.83;;;2.30;;
3095;SDS011;1558;42.700;23.360;2024-03-02T13:13:35;4.57;;;2.73;;
3095;SDS011;1558;42.700;23.360;2024-03-02T13:16:04;2.83;;;2.50;;
3095;SDS011;1558;42.700;23.360;2024-03-02T13:18:36;3.80;;;2.53;;
3095;SDS011;1558;42.700;23.360;2024-03-02T13:21:04;6.80;;;3.37;;
3095;SDS011;1558;42.700;23.360;2024-03-02T13:23:32;4.03;;;2.80;;
3095;SDS011;1558;42.700;23.360;2024-03-02T13:26:00;4.00;;;2.60;;
3095;SDS011;1558;42.700;23.360;2024-03-02T13:28:31;3.60;;;2.57;;
3095;SDS011;1558;42.700;23.360;2024-03-02T13:31:01;2.77;;;2.17;;
3095;SDS011;1558;42.700;23.360;2024-03-02T13:33:30;2.70;;;2.50;;
3095;SDS011;1558;42.700;23.360;2024-03-02T13:35:59;3.83;;;2.33;;
3095;SDS011;1558;42.700;23.360;2024-03-02T13:38:28;5.77;;;2.57;;
3095;SDS011;1558;42.700;23.360;2024-03-02T13:40:56;2.53;;;2.33;;
3095;SDS011;1558;42.700;23.360;2024-03-02T13:43:24;2.37;;;2.17;;
3095;SDS011;1558;42.700;23.360;2024-03-02T13:45:53;1.67;;;1.57;;
3095;SDS011;1558;42.700;23.360;2024-03-02T13:48:22;3.33;;;2.33;;
3095;SDS011;1558;42.700;23.360;2024-03-02T13:50:52;6.13;;;3.70;;
3095;SDS011;1558;42.700;23.360;2024-03-02T13:53:20;2.47;;;2.27;;
3095;SDS011;1558;42.700;23.360;2024-03-02T13:55:49;5.03;;;2.07;;
3095;SDS011;1558;42.700;23.360;2024-03-02T13:58:17;2.50;;;1.97;;
3095;SDS011;1558;42.700;23.360;2024-03-02T14:00:47;2.40;;;1.73;;
3095;SDS011;1558;42.700;23.360;2024-03-02T14:03:15;2.57;;;2.30;;
3095;SDS011;1558;42.700;23.360;2024-03-02T14:05:45;8.20;;;2.93;;
3095;SDS011;1558;42.700;23.360;2024-03-02T14:08:13;3.77;;;2.63;;
3095;SDS011;1558;42.700;23.360;2024-03-02T14:10:42;3.60;;;3.30;;
3095;SDS011;1558;42.700;23.360;2024-03-02T14:13:10;3.63;;;3.33;;
3095;SDS011;1558;42.700;23.360;2024-03-02T14:15:38;4.30;;;3.90;;
3095;SDS011;1558;42.700;23.360;2024-03-02T14:18:06;2.60;;;2.27;;
3095;SDS011;1558;42.700;23.360;2024-03-02T14:20:36;3.90;;;2.43;;
3095;SDS011;1558;42.700;23.360;2024-03-02T14:23:07;3.80;;;2.27;;
3095;SDS011;1558;42.700;23.360;2024-03-02T14:25:36;4.40;;;3.30;;
3095;SDS011;1558;42.700;23.360;2024-03-02T14:28:05;2.23;;;2.03;;
3095;SDS011;1558;42.700;23.360;2024-03-02T14:30:53;4.43;;;2.77;;
3095;SDS011;1558;42.700;23.360;2024-03-02T14:33:21;5.17;;;2.57;;
3095;SDS011;1558;42.700;23.360;2024-03-02T14:35:49;4.97;;;3.70;;
3095;SDS011;1558;42.700;23.360;2024-03-02T14:38:19;5.97;;;3.20;;
3095;SDS011;1558;42.700;23.360;2024-03-02T14:40:48;3.60;;;2.83;;
3095;SDS011;1558;42.700;23.360;2024-03-02T14:43:17;3.90;;;2.53;;
3095;SDS011;1558;42.700;23.360;2024-03-02T14:45:45;3.53;;;2.67;;
3095;SDS011;1558;42.700;23.360;2024-03-02T14:48:13;2.77;;;2.27;;
3095;SDS011;1558;42.700;23.360;2024-03-02T14:50:42;12.80;;;10.27;;
3095;SDS011;1558;42.700;23.360;2024-03-02T14:53:10;25.03;;;20.97;;
3095;SDS011;1558;42.700;23.360;2024-03-02T14:55:40;21.13;;;18.80;;
3095;SDS011;1558;42.700;23.360;2024-03-02T14:58:08;20.20;;;17.13;;
3095;SDS011;1558;42.700;23.360;2024-03-02T15:00:40;20.93;;;18.10;;
3095;SDS011;1558;42.700;23.360;2024-03-02T15:03:09;24.07;;;21.10;;
3095;SDS011;1558;42.700;23.360;2024-03-02T15:05:40;25.20;;;21.23;;
3095;SDS011;1558;42.700;23.360;2024-03-02T15:08:09;24.40;;;20.60;;
3095;SDS011;1558;42.700;23.360;2024-03-02T15:10:37;26.90;;;20.83;;
3095;SDS011;1558;42.700;23.360;2024-03-02T15:13:09;27.60;;;20.37;;
3095;SDS011;1558;42.700;23.360;2024-03-02T15:15:38;23.80;;;21.03;;
3095;SDS011;1558;42.700;23.360;2024-03-02T15:18:06;26.30;;;21.37;;